sensor_id;sensor_type;location;lat;lon;timestamp;noise_LAeq;noise_LA_min;noise_LA_max;noise_LA01;noise_LA95
60503;Laerm;51448;51.660;5.824;2023-04-24T00:00:28;45.91;30.08;58.93;;
60503;Laerm;51448;51.660;5.824;2023-04-24T00:02:55;47.09;30.47;58.89;;
60503;Laerm;51448;51.660;5.824;2023-04-24T00:05:25;46.34;29.77;58.19;;
60503;Laerm;51448;51.660;5.824;2023-04-24T00:07:52;46.35;29.91;58.38;;
60503;Laerm;51448;51.660;5.824;2023-04-24T00:10:21;45.95;29.89;58.34;;
60503;Laerm;51448;51.660;5.824;2023-04-24T00:12:48;47.36;32.81;58.52;;
60503;Laerm;51448;51.660;5.824;2023-04-24T00:15:16;46.80;30.88;58.51;;
60503;Laerm;51448;51.660;5.824;2023-04-24T00:17:43;46.25;30.72;58.07;;
60503;Laerm;51448;51.660;5.824;2023-04-24T00:20:11;46.31;30.17;58.33;;
60503;Laerm;51448;51.660;5.824;2023-04-24T00:22:39;46.32;29.92;58.37;;
60503;Laerm;51448;51.660;5.824;2023-04-24T00:25:07;46.51;29.52;58.19;;
60503;Laerm;51448;51.660;5.824;2023-04-24T00:27:35;46.73;29.68;62.47;;
60503;Laerm;51448;51.660;5.824;2023-04-24T00:30:05;46.22;29.54;58.01;;
60503;Laerm;51448;51.660;5.824;2023-04-24T00:32:33;46.37;29.51;58.44;;
60503;Laerm;51448;51.660;5.824;2023-04-24T00:35:01;45.79;29.46;58.74;;
60503;Laerm;51448;51.660;5.824;2023-04-24T00:37:29;46.35;30.26;58.48;;
60503;Laerm;51448;51.660;5.824;2023-04-24T00:39:56;45.78;30.01;57.84;;
60503;Laerm;51448;51.660;5.824;2023-04-24T00:42:25;45.95;30.70;58.55;;
60503;Laerm;51448;51.660;5.824;2023-04-24T00:44:52;46.49;30.93;58.44;;
60503;Laerm;51448;51.660;5.824;2023-04-24T00:47:21;46.83;31.24;64.70;;
60503;Laerm;51448;51.660;5.824;2023-04-24T00:49:49;47.23;30.88;58.16;;
60503;Laerm;51448;51.660;5.824;2023-04-24T00:52:16;47.01;30.63;58.50;;
60503;Laerm;51448;51.660;5.824;2023-04-24T00:54:45;47.25;31.13;61.61;;
60503;Laerm;51448;51.660;5.824;2023-04-24T00:57:13;46.55;30.77;58.40;;
60503;Laerm;51448;51.660;5.824;2023-04-24T00:59:43;46.24;30.64;58.82;;
60503;Laerm;51448;51.660;5.824;2023-04-24T01:02:12;46.93;30.34;58.60;;
60503;Laerm;51448;51.660;5.824;2023-04-24T01:04:40;46.48;30.32;59.36;;
60503;Laerm;51448;51.660;5.824;2023-04-24T01:07:08;45.96;31.31;58.41;;
60503;Laerm;51448;51.660;5.824;2023-04-24T01:09:42;45.71;30.25;58.42;;
60503;Laerm;51448;51.660;5.824;2023-04-24T01:12:10;46.24;30.29;58.57;;
60503;Laerm;51448;51.660;5.824;2023-04-24T01:14:38;47.37;30.89;58.85;;
60503;Laerm;51448;51.660;5.824;2023-04-24T01:17:06;46.54;30.44;58.45;;
60503;Laerm;51448;51.660;5.824;2023-04-24T01:19:34;45.74;30.14;58.28;;
60503;Laerm;51448;51.660;5.824;2023-04-24T01:22:10;46.30;30.31;58.87;;
60503;Laerm;51448;51.660;5.824;2023-04-24T01:24:39;46.94;30.26;58.88;;
60503;Laerm;51448;51.660;5.824;2023-04-24T01:27:08;46.29;30.05;58.23;;
60503;Laerm;51448;51.660;5.824;2023-04-24T01:29:36;46.54;30.16;62.88;;
60503;Laerm;51448;51.660;5.824;2023-04-24T01:32:05;46.17;29.97;58.23;;
60503;Laerm;51448;51.660;5.824;2023-04-24T01:34:33;46.23;30.32;61.05;;
60503;Laerm;51448;51.660;5.824;2023-04-24T01:37:01;46.30;30.04;59.50;;
60503;Laerm;51448;51.660;5.824;2023-04-24T01:39:29;46.47;30.86;58.44;;
60503;Laerm;51448;51.660;5.824;2023-04-24T01:41:57;46.09;30.85;58.92;;
60503;Laerm;51448;51.660;5.824;2023-04-24T01:44:25;46.36;31.64;58.33;;
60503;Laerm;51448;51.660;5.824;2023-04-24T01:46:55;45.98;30.87;57.82;;
60503;Laerm;51448;51.660;5.824;2023-04-24T01:49:23;47.40;32.03;65.05;;
60503;Laerm;51448;51.660;5.824;2023-04-24T01:51:51;47.17;35.66;58.71;;
60503;Laerm;51448;51.660;5.824;2023-04-24T01:54:19;48.57;36.61;61.61;;
60503;Laerm;51448;51.660;5.824;2023-04-24T01:56:47;47.11;32.54;61.31;;
60503;Laerm;51448;51.660;5.824;2023-04-24T01:59:16;46.63;32.35;58.33;;
60503;Laerm;51448;51.660;5.824;2023-04-24T02:01:44;48.50;35.07;59.57;;
60503;Laerm;51448;51.660;5.824;2023-04-24T02:04:12;50.49;37.65;59.48;;
60503;Laerm;51448;51.660;5.824;2023-04-24T02:06:40;49.61;32.86;58.32;;
60503;Laerm;51448;51.660;5.824;2023-04-24T02:09:07;50.59;32.60;66.76;;
60503;Laerm;51448;51.660;5.824;2023-04-24T02:11:35;49.31;35.46;59.79;;
60503;Laerm;51448;51.660;5.824;2023-04-24T02:14:02;48.34;37.80;62.34;;
60503;Laerm;51448;51.660;5.824;2023-04-24T02:16:31;47.56;32.50;60.19;;
60503;Laerm;51448;51.660;5.824;2023-04-24T02:19:03;35.47;31.98;52.99;;
60503;Laerm;51448;51.660;5.824;2023-04-24T02:21:30;46.18;32.68;58.39;;
60503;Laerm;51448;51.660;5.824;2023-04-24T02:23:58;46.07;32.17;58.10;;
60503;Laerm;51448;51.660;5.824;2023-04-24T02:26:26;46.69;32.14;58.05;;
60503;Laerm;51448;51.660;5.824;2023-04-24T02:28:54;48.28;32.36;64.02;;
60503;Laerm;51448;51.660;5.824;2023-04-24T02:31:22;45.87;31.45;58.04;;
60503;Laerm;51448;51.660;5.824;2023-04-24T02:33:49;47.22;33.66;60.62;;
60503;Laerm;51448;51.660;5.824;2023-04-24T02:36:17;51.54;32.55;64.73;;
60503;Laerm;51448;51.660;5.824;2023-04-24T02:38:44;46.35;31.78;58.50;;
60503;Laerm;51448;51.660;5.824;2023-04-24T02:41:13;47.03;31.65;62.73;;
60503;Laerm;51448;51.660;5.824;2023-04-24T02:43:42;48.35;35.32;62.38;;
60503;Laerm;51448;51.660;5.824;2023-04-24T02:46:10;46.64;33.01;61.63;;
60503;Laerm;51448;51.660;5.824;2023-04-24T02:48:38;46.09;32.23;62.85;;
60503;Laerm;51448;51.660;5.824;2023-04-24T02:51:06;46.03;33.34;58.25;;
60503;Laerm;51448;51.660;5.824;2023-04-24T02:53:34;46.46;32.36;58.91;;
60503;Laerm;51448;51.660;5.824;2023-04-24T02:56:02;46.23;32.06;58.13;;
60503;Laerm;51448;51.660;5.824;2023-04-24T02:58:30;47.74;31.20;63.03;;
60503;Laerm;51448;51.660;5.824;2023-04-24T03:00:57;46.67;31.49;59.22;;
60503;Laerm;51448;51.660;5.824;2023-04-24T03:03:25;48.71;31.91;64.38;;
60503;Laerm;51448;51.660;5.824;2023-04-24T03:05:53;46.92;32.19;59.57;;
60503;Laerm;51448;51.660;5.824;2023-04-24T03:08:21;47.84;31.77;69.78;;
60503;Laerm;51448;51.660;5.824;2023-04-24T03:10:48;46.91;32.50;58.42;;
60503;Laerm;51448;51.660;5.824;2023-04-24T03:13:16;47.74;31.46;61.21;;
60503;Laerm;51448;51.660;5.824;2023-04-24T03:15:44;47.10;31.41;58.89;;
60503;Laerm;51448;51.660;5.824;2023-04-24T03:18:12;46.94;32.39;58.13;;
60503;Laerm;51448;51.660;5.824;2023-04-24T03:20:40;47.63;32.90;62.77;;
60503;Laerm;51448;51.660;5.824;2023-04-24T03:23:08;46.98;32.85;60.91;;
60503;Laerm;51448;51.660;5.824;2023-04-24T03:25:36;46.18;32.27;57.93;;
60503;Laerm;51448;51.660;5.824;2023-04-24T03:28:05;46.23;32.19;68.35;;
60503;Laerm;51448;51.660;5.824;2023-04-24T03:30:42;47.09;32.46;62.67;;
60503;Laerm;51448;51.660;5.824;2023-04-24T03:33:11;47.35;32.42;58.66;;
60503;Laerm;51448;51.660;5.824;2023-04-24T03:35:46;46.04;32.22;57.86;;
60503;Laerm;51448;51.660;5.824;2023-04-24T03:38:13;52.38;34.35;66.35;;
60503;Laerm;51448;51.660;5.824;2023-04-24T03:41:01;53.97;34.27;65.42;;
60503;Laerm;51448;51.660;5.824;2023-04-24T03:43:42;55.05;35.11;68.49;;
60503;Laerm;51448;51.660;5.824;2023-04-24T03:46:10;48.42;34.33;59.41;;
60503;Laerm;51448;51.660;5.824;2023-04-24T03:48:42;49.35;35.12;61.07;;
60503;Laerm;51448;51.660;5.824;2023-04-24T03:51:10;50.07;35.73;67.78;;
60503;Laerm;51448;51.660;5.824;2023-04-24T03:53:42;56.42;35.47;71.22;;
60503;Laerm;51448;51.660;5.824;2023-04-24T03:56:12;63.89;37.23;88.61;;
60503;Laerm;51448;51.660;5.824;2023-04-24T03:58:41;64.27;38.34;80.19;;
60503;Laerm;51448;51.660;5.824;2023-04-24T04:01:09;59.50;37.70;75.38;;
60503;Laerm;51448;51.660;5.824;2023-04-24T04:03:49;66.05;38.44;80.64;;
60503;Laerm;51448;51.660;5.824;2023-04-24T04:06:20;67.74;37.11;92.25;;
60503;Laerm;51448;51.660;5.824;2023-04-24T04:08:50;63.57;39.77;79.36;;
60503;Laerm;51448;51.660;5.824;2023-04-24T04:11:18;62.28;40.32;81.76;;
60503;Laerm;51448;51.660;5.824;2023-04-24T04:13:45;71.56;39.60;91.00;;
60503;Laerm;51448;51.660;5.824;2023-04-24T04:16:17;65.01;42.54;80.02;;
60503;Laerm;51448;51.660;5.824;2023-04-24T04:18:47;65.30;41.03;84.85;;
60503;Laerm;51448;51.660;5.824;2023-04-24T04:21:15;68.96;38.08;95.01;;
60503;Laerm;51448;51.660;5.824;2023-04-24T04:23:43;73.31;36.97;87.13;;
60503;Laerm;51448;51.660;5.824;2023-04-24T04:26:18;72.85;38.40;90.27;;
60503;Laerm;51448;51.660;5.824;2023-04-24T04:29:04;69.29;38.58;90.87;;
60503;Laerm;51448;51.660;5.824;2023-04-24T04:31:33;67.89;39.40;87.59;;
60503;Laerm;51448;51.660;5.824;2023-04-24T04:34:06;62.15;40.05;84.13;;
60503;Laerm;51448;51.660;5.824;2023-04-24T04:36:35;52.68;38.88;67.10;;
60503;Laerm;51448;51.660;5.824;2023-04-24T04:39:20;50.17;38.10;62.45;;
60503;Laerm;51448;51.660;5.824;2023-04-24T04:41:56;51.38;38.00;67.26;;
60503;Laerm;51448;51.660;5.824;2023-04-24T04:44:41;50.69;37.73;66.80;;
60503;Laerm;51448;51.660;5.824;2023-04-24T04:47:12;52.77;37.32;75.84;;
60503;Laerm;51448;51.660;5.824;2023-04-24T04:49:41;52.95;40.05;73.44;;
60503;Laerm;51448;51.660;5.824;2023-04-24T04:52:16;55.26;39.78;69.62;;
60503;Laerm;51448;51.660;5.824;2023-04-24T04:54:47;55.13;41.45;69.47;;
60503;Laerm;51448;51.660;5.824;2023-04-24T04:57:14;55.66;42.92;69.11;;
60503;Laerm;51448;51.660;5.824;2023-04-24T04:59:42;57.32;45.45;82.08;;
60503;Laerm;51448;51.660;5.824;2023-04-24T05:02:19;53.29;45.88;68.98;;
60503;Laerm;51448;51.660;5.824;2023-04-24T05:04:47;52.69;43.97;62.19;;
60503;Laerm;51448;51.660;5.824;2023-04-24T05:07:15;53.01;44.28;64.29;;
60503;Laerm;51448;51.660;5.824;2023-04-24T05:09:47;52.85;41.60;65.15;;
60503;Laerm;51448;51.660;5.824;2023-04-24T05:12:15;56.05;40.88;74.69;;
60503;Laerm;51448;51.660;5.824;2023-04-24T05:14:50;68.44;41.49;88.85;;
60503;Laerm;51448;51.660;5.824;2023-04-24T05:17:17;57.23;43.66;76.31;;
60503;Laerm;51448;51.660;5.824;2023-04-24T05:19:45;55.16;43.51;73.03;;
60503;Laerm;51448;51.660;5.824;2023-04-24T05:22:14;77.51;44.32;101.77;;
60503;Laerm;51448;51.660;5.824;2023-04-24T05:24:48;79.89;46.55;101.21;;
60503;Laerm;51448;51.660;5.824;2023-04-24T05:27:36;58.82;43.68;73.63;;
60503;Laerm;51448;51.660;5.824;2023-04-24T05:30:09;55.08;44.65;71.22;;
60503;Laerm;51448;51.660;5.824;2023-04-24T05:32:37;52.66;42.13;70.58;;
60503;Laerm;51448;51.660;5.824;2023-04-24T05:35:05;54.42;41.65;65.00;;
60503;Laerm;51448;51.660;5.824;2023-04-24T05:37:33;64.29;45.46;85.03;;
60503;Laerm;51448;51.660;5.824;2023-04-24T05:40:02;70.90;45.13;93.69;;
60503;Laerm;51448;51.660;5.824;2023-04-24T05:42:32;74.57;45.74;99.16;;
60503;Laerm;51448;51.660;5.824;2023-04-24T05:44:59;62.40;47.86;87.17;;
60503;Laerm;51448;51.660;5.824;2023-04-24T05:47:27;74.82;47.14;104.24;;
60503;Laerm;51448;51.660;5.824;2023-04-24T05:49:55;67.74;50.83;90.22;;
60503;Laerm;51448;51.660;5.824;2023-04-24T05:52:24;61.15;53.43;70.29;;
60503;Laerm;51448;51.660;5.824;2023-04-24T05:54:52;62.01;55.92;70.35;;
60503;Laerm;51448;51.660;5.824;2023-04-24T05:57:24;61.57;56.08;71.84;;
60503;Laerm;51448;51.660;5.824;2023-04-24T06:00:00;60.86;53.71;70.14;;
60503;Laerm;51448;51.660;5.824;2023-04-24T06:02:29;60.68;52.45;82.07;;
60503;Laerm;51448;51.660;5.824;2023-04-24T06:10:01;57.23;47.07;67.45;;
60503;Laerm;51448;51.660;5.824;2023-04-24T06:12:36;57.81;48.91;79.07;;
60503;Laerm;51448;51.660;5.824;2023-04-24T06:15:10;74.02;53.82;92.97;;
60503;Laerm;51448;51.660;5.824;2023-04-24T06:17:50;73.07;50.30;90.33;;
60503;Laerm;51448;51.660;5.824;2023-04-24T06:20:19;54.00;43.96;65.89;;
60503;Laerm;51448;51.660;5.824;2023-04-24T06:22:47;55.26;43.48;72.24;;
60503;Laerm;51448;51.660;5.824;2023-04-24T06:25:15;56.91;49.33;77.19;;
60503;Laerm;51448;51.660;5.824;2023-04-24T06:27:43;54.66;47.92;75.81;;
60503;Laerm;51448;51.660;5.824;2023-04-24T06:30:11;56.68;45.28;74.49;;
60503;Laerm;51448;51.660;5.824;2023-04-24T06:32:39;63.21;44.04;93.44;;
60503;Laerm;51448;51.660;5.824;2023-04-24T06:35:08;72.73;47.32;99.41;;
60503;Laerm;51448;51.660;5.824;2023-04-24T06:37:42;65.04;52.37;93.33;;
60503;Laerm;51448;51.660;5.824;2023-04-24T06:40:12;62.66;50.20;90.68;;
60503;Laerm;51448;51.660;5.824;2023-04-24T06:42:40;54.07;46.49;72.57;;
60503;Laerm;51448;51.660;5.824;2023-04-24T06:45:11;54.51;42.86;73.36;;
60503;Laerm;51448;51.660;5.824;2023-04-24T06:47:39;54.44;41.55;71.45;;
60503;Laerm;51448;51.660;5.824;2023-04-24T06:50:07;58.87;41.36;83.80;;
60503;Laerm;51448;51.660;5.824;2023-04-24T06:52:35;50.85;40.55;60.91;;
60503;Laerm;51448;51.660;5.824;2023-04-24T06:55:04;61.31;41.79;82.67;;
60503;Laerm;51448;51.660;5.824;2023-04-24T06:57:32;60.59;41.13;89.33;;
60503;Laerm;51448;51.660;5.824;2023-04-24T06:59:59;54.43;43.50;68.52;;
60503;Laerm;51448;51.660;5.824;2023-04-24T07:02:27;55.49;46.55;70.31;;
60503;Laerm;51448;51.660;5.824;2023-04-24T07:04:55;59.86;49.59;87.97;;
60503;Laerm;51448;51.660;5.824;2023-04-24T07:07:22;55.72;48.73;78.55;;
60503;Laerm;51448;51.660;5.824;2023-04-24T07:09:52;56.87;47.54;84.63;;
60503;Laerm;51448;51.660;5.824;2023-04-24T07:12:19;54.11;48.39;67.51;;
60503;Laerm;51448;51.660;5.824;2023-04-24T07:14:50;58.60;48.33;83.73;;
60503;Laerm;51448;51.660;5.824;2023-04-24T07:17:18;57.60;51.43;69.62;;
60503;Laerm;51448;51.660;5.824;2023-04-24T07:19:45;59.16;50.94;84.00;;
60503;Laerm;51448;51.660;5.824;2023-04-24T07:22:13;58.93;51.09;76.94;;
60503;Laerm;51448;51.660;5.824;2023-04-24T07:24:44;56.30;47.19;69.39;;
60503;Laerm;51448;51.660;5.824;2023-04-24T07:27:12;61.51;49.79;85.41;;
60503;Laerm;51448;51.660;5.824;2023-04-24T07:29:42;56.94;48.55;76.32;;
60503;Laerm;51448;51.660;5.824;2023-04-24T07:32:10;56.28;48.41;78.02;;
60503;Laerm;51448;51.660;5.824;2023-04-24T07:34:38;55.63;49.26;71.43;;
60503;Laerm;51448;51.660;5.824;2023-04-24T07:37:06;57.81;51.15;73.28;;
60503;Laerm;51448;51.660;5.824;2023-04-24T07:39:33;59.36;49.11;86.09;;
60503;Laerm;51448;51.660;5.824;2023-04-24T07:42:01;60.10;48.36;85.27;;
60503;Laerm;51448;51.660;5.824;2023-04-24T07:44:29;55.72;47.70;75.69;;
60503;Laerm;51448;51.660;5.824;2023-04-24T07:46:57;63.92;49.08;93.78;;
60503;Laerm;51448;51.660;5.824;2023-04-24T07:49:25;62.66;47.95;89.09;;
60503;Laerm;51448;51.660;5.824;2023-04-24T07:51:55;57.69;48.99;76.17;;
60503;Laerm;51448;51.660;5.824;2023-04-24T07:54:22;59.19;50.49;76.59;;
60503;Laerm;51448;51.660;5.824;2023-04-24T07:56:50;59.50;52.30;80.81;;
60503;Laerm;51448;51.660;5.824;2023-04-24T07:59:18;59.61;51.33;81.50;;
60503;Laerm;51448;51.660;5.824;2023-04-24T08:01:45;58.11;51.04;75.62;;
60503;Laerm;51448;51.660;5.824;2023-04-24T08:04:14;60.17;50.45;81.63;;
60503;Laerm;51448;51.660;5.824;2023-04-24T08:06:42;56.38;49.11;76.80;;
60503;Laerm;51448;51.660;5.824;2023-04-24T08:09:10;58.40;50.33;78.83;;
60503;Laerm;51448;51.660;5.824;2023-04-24T08:11:37;57.73;50.58;68.24;;
60503;Laerm;51448;51.660;5.824;2023-04-24T08:14:05;57.33;52.27;75.16;;
60503;Laerm;51448;51.660;5.824;2023-04-24T08:16:36;60.55;51.57;79.79;;
60503;Laerm;51448;51.660;5.824;2023-04-24T08:19:04;59.54;50.79;74.82;;
60503;Laerm;51448;51.660;5.824;2023-04-24T08:21:32;58.13;50.61;70.24;;
60503;Laerm;51448;51.660;5.824;2023-04-24T08:23:59;58.39;51.88;77.29;;
60503;Laerm;51448;51.660;5.824;2023-04-24T08:26:28;60.72;51.50;78.14;;
60503;Laerm;51448;51.660;5.824;2023-04-24T08:28:58;64.29;52.73;85.18;;
60503;Laerm;51448;51.660;5.824;2023-04-24T08:31:25;64.66;51.21;87.51;;
60503;Laerm;51448;51.660;5.824;2023-04-24T08:33:58;58.44;51.64;77.66;;
60503;Laerm;51448;51.660;5.824;2023-04-24T08:36:27;57.53;48.77;77.35;;
60503;Laerm;51448;51.660;5.824;2023-04-24T08:39:10;73.35;48.65;98.90;;
60503;Laerm;51448;51.660;5.824;2023-04-24T08:41:41;60.22;48.80;87.55;;
60503;Laerm;51448;51.660;5.824;2023-04-24T08:44:11;60.78;49.75;87.10;;
60503;Laerm;51448;51.660;5.824;2023-04-24T08:46:40;58.37;48.54;81.44;;
60503;Laerm;51448;51.660;5.824;2023-04-24T08:49:08;57.02;47.99;80.82;;
60503;Laerm;51448;51.660;5.824;2023-04-24T08:51:37;58.30;46.62;85.80;;
60503;Laerm;51448;51.660;5.824;2023-04-24T08:54:06;54.25;45.64;79.69;;
60503;Laerm;51448;51.660;5.824;2023-04-24T08:56:37;57.10;46.41;73.83;;
60503;Laerm;51448;51.660;5.824;2023-04-24T08:59:09;55.25;43.62;83.37;;
60503;Laerm;51448;51.660;5.824;2023-04-24T09:01:39;62.25;43.88;75.15;;
60503;Laerm;51448;51.660;5.824;2023-04-24T09:04:09;58.49;43.72;77.11;;
60503;Laerm;51448;51.660;5.824;2023-04-24T09:06:42;54.47;41.91;80.23;;
60503;Laerm;51448;51.660;5.824;2023-04-24T09:09:10;51.16;39.47;69.41;;
60503;Laerm;51448;51.660;5.824;2023-04-24T09:11:39;55.86;39.37;84.03;;
60503;Laerm;51448;51.660;5.824;2023-04-24T09:14:11;61.13;40.21;76.53;;
60503;Laerm;51448;51.660;5.824;2023-04-24T09:16:40;57.01;40.12;74.46;;
60503;Laerm;51448;51.660;5.824;2023-04-24T09:19:08;57.20;40.51;72.12;;
60503;Laerm;51448;51.660;5.824;2023-04-24T09:21:36;56.12;39.86;73.01;;
60503;Laerm;51448;51.660;5.824;2023-04-24T09:24:08;56.51;41.48;80.13;;
60503;Laerm;51448;51.660;5.824;2023-04-24T09:26:42;58.08;39.26;76.98;;
60503;Laerm;51448;51.660;5.824;2023-04-24T09:29:16;54.29;40.64;74.96;;
60503;Laerm;51448;51.660;5.824;2023-04-24T09:31:45;71.48;39.92;97.78;;
60503;Laerm;51448;51.660;5.824;2023-04-24T09:34:13;56.24;38.62;71.48;;
60503;Laerm;51448;51.660;5.824;2023-04-24T09:36:42;70.53;41.32;92.70;;
60503;Laerm;51448;51.660;5.824;2023-04-24T09:39:14;64.08;42.68;80.74;;
60503;Laerm;51448;51.660;5.824;2023-04-24T09:41:55;62.01;42.31;81.88;;
60503;Laerm;51448;51.660;5.824;2023-04-24T09:44:36;59.25;41.17;80.74;;
60503;Laerm;51448;51.660;5.824;2023-04-24T09:47:08;59.56;38.34;77.08;;
60503;Laerm;51448;51.660;5.824;2023-04-24T09:49:37;55.30;40.93;78.15;;
60503;Laerm;51448;51.660;5.824;2023-04-24T09:52:10;55.44;39.88;71.66;;
60503;Laerm;51448;51.660;5.824;2023-04-24T09:54:39;62.56;38.61;80.08;;
60503;Laerm;51448;51.660;5.824;2023-04-24T09:57:08;53.78;40.46;78.95;;
60503;Laerm;51448;51.660;5.824;2023-04-24T09:59:42;53.90;39.71;69.92;;
60503;Laerm;51448;51.660;5.824;2023-04-24T10:02:19;57.40;40.09;82.77;;
60503;Laerm;51448;51.660;5.824;2023-04-24T10:04:56;52.32;39.72;73.80;;
60503;Laerm;51448;51.660;5.824;2023-04-24T10:07:26;50.27;39.21;69.58;;
60503;Laerm;51448;51.660;5.824;2023-04-24T10:09:54;60.76;38.55;87.54;;
60503;Laerm;51448;51.660;5.824;2023-04-24T10:12:23;55.76;38.80;73.95;;
60503;Laerm;51448;51.660;5.824;2023-04-24T10:14:53;55.20;38.28;74.80;;
60503;Laerm;51448;51.660;5.824;2023-04-24T10:17:22;60.70;39.99;78.67;;
60503;Laerm;51448;51.660;5.824;2023-04-24T10:19:52;51.70;39.34;67.14;;
60503;Laerm;51448;51.660;5.824;2023-04-24T10:22:21;54.69;39.62;75.52;;
60503;Laerm;51448;51.660;5.824;2023-04-24T10:24:53;52.37;38.95;69.63;;
60503;Laerm;51448;51.660;5.824;2023-04-24T10:27:21;53.58;41.14;71.71;;
60503;Laerm;51448;51.660;5.824;2023-04-24T10:29:53;59.09;40.06;81.70;;
60503;Laerm;51448;51.660;5.824;2023-04-24T10:32:20;59.47;39.94;80.02;;
60503;Laerm;51448;51.660;5.824;2023-04-24T10:34:48;54.47;39.01;75.43;;
60503;Laerm;51448;51.660;5.824;2023-04-24T10:37:16;52.51;38.96;65.12;;
60503;Laerm;51448;51.660;5.824;2023-04-24T10:39:48;54.24;38.24;66.45;;
60503;Laerm;51448;51.660;5.824;2023-04-24T10:42:18;57.61;40.90;70.78;;
60503;Laerm;51448;51.660;5.824;2023-04-24T10:44:48;57.47;38.56;74.53;;
60503;Laerm;51448;51.660;5.824;2023-04-24T10:47:16;56.37;38.55;71.08;;
60503;Laerm;51448;51.660;5.824;2023-04-24T10:49:44;58.10;37.70;75.41;;
60503;Laerm;51448;51.660;5.824;2023-04-24T10:52:14;68.04;38.87;86.59;;
60503;Laerm;51448;51.660;5.824;2023-04-24T10:54:46;59.42;38.59;79.09;;
60503;Laerm;51448;51.660;5.824;2023-04-24T10:59:46;52.37;38.73;72.84;;
60503;Laerm;51448;51.660;5.824;2023-04-24T11:02:15;53.82;38.14;74.23;;
60503;Laerm;51448;51.660;5.824;2023-04-24T11:04:44;52.90;40.29;70.65;;
60503;Laerm;51448;51.660;5.824;2023-04-24T11:07:13;63.92;42.57;92.65;;
60503;Laerm;51448;51.660;5.824;2023-04-24T11:09:43;56.98;38.86;80.24;;
60503;Laerm;51448;51.660;5.824;2023-04-24T11:12:17;50.18;37.00;74.23;;
60503;Laerm;51448;51.660;5.824;2023-04-24T11:17:36;52.49;35.67;74.97;;
60503;Laerm;51448;51.660;5.824;2023-04-24T11:20:16;52.66;39.05;67.38;;
60503;Laerm;51448;51.660;5.824;2023-04-24T11:22:55;58.08;39.34;78.79;;
60503;Laerm;51448;51.660;5.824;2023-04-24T11:25:24;59.14;40.40;78.54;;
60503;Laerm;51448;51.660;5.824;2023-04-24T11:28:04;61.02;39.80;83.58;;
60503;Laerm;51448;51.660;5.824;2023-04-24T11:30:33;57.95;40.43;79.27;;
60503;Laerm;51448;51.660;5.824;2023-04-24T11:33:05;56.37;37.03;73.39;;
60503;Laerm;51448;51.660;5.824;2023-04-24T11:35:40;55.95;36.83;81.24;;
60503;Laerm;51448;51.660;5.824;2023-04-24T11:38:09;58.36;40.72;82.45;;
60503;Laerm;51448;51.660;5.824;2023-04-24T11:40:40;53.36;38.10;72.93;;
60503;Laerm;51448;51.660;5.824;2023-04-24T11:43:10;51.84;38.34;75.15;;
60503;Laerm;51448;51.660;5.824;2023-04-24T11:45:48;50.67;36.92;72.62;;
60503;Laerm;51448;51.660;5.824;2023-04-24T11:48:20;53.04;38.37;66.79;;
60503;Laerm;51448;51.660;5.824;2023-04-24T11:50:50;53.46;38.03;80.31;;
60503;Laerm;51448;51.660;5.824;2023-04-24T11:53:20;51.51;37.82;73.53;;
60503;Laerm;51448;51.660;5.824;2023-04-24T11:55:51;56.71;39.19;88.58;;
60503;Laerm;51448;51.660;5.824;2023-04-24T11:58:21;53.42;40.32;75.66;;
60503;Laerm;51448;51.660;5.824;2023-04-24T12:00:57;56.00;38.37;74.96;;
60503;Laerm;51448;51.660;5.824;2023-04-24T12:03:25;52.63;36.59;72.08;;
60503;Laerm;51448;51.660;5.824;2023-04-24T12:06:05;59.74;40.69;78.40;;
60503;Laerm;51448;51.660;5.824;2023-04-24T12:08:35;60.32;39.33;86.82;;
60503;Laerm;51448;51.660;5.824;2023-04-24T12:11:07;61.10;38.36;83.96;;
60503;Laerm;51448;51.660;5.824;2023-04-24T12:13:35;56.41;39.79;82.50;;
60503;Laerm;51448;51.660;5.824;2023-04-24T12:16:04;55.18;41.04;72.98;;
60503;Laerm;51448;51.660;5.824;2023-04-24T12:18:33;57.29;40.68;85.67;;
60503;Laerm;51448;51.660;5.824;2023-04-24T12:21:26;56.57;40.41;77.72;;
60503;Laerm;51448;51.660;5.824;2023-04-24T12:24:00;54.48;39.64;73.33;;
60503;Laerm;51448;51.660;5.824;2023-04-24T12:26:28;57.37;39.47;83.57;;
60503;Laerm;51448;51.660;5.824;2023-04-24T12:29:03;54.70;37.52;79.26;;
60503;Laerm;51448;51.660;5.824;2023-04-24T12:31:31;59.10;41.58;71.89;;
60503;Laerm;51448;51.660;5.824;2023-04-24T12:33:59;59.38;50.27;76.68;;
60503;Laerm;51448;51.660;5.824;2023-04-24T12:36:28;57.76;42.59;79.42;;
60503;Laerm;51448;51.660;5.824;2023-04-24T12:38:55;52.32;36.96;71.90;;
60503;Laerm;51448;51.660;5.824;2023-04-24T12:41:23;56.58;39.68;74.69;;
60503;Laerm;51448;51.660;5.824;2023-04-24T12:43:54;56.50;36.93;82.58;;
60503;Laerm;51448;51.660;5.824;2023-04-24T12:46:22;59.62;38.03;79.45;;
60503;Laerm;51448;51.660;5.824;2023-04-24T12:48:50;59.04;39.91;77.47;;
60503;Laerm;51448;51.660;5.824;2023-04-24T12:51:18;57.14;40.77;75.68;;
60503;Laerm;51448;51.660;5.824;2023-04-24T12:53:45;59.77;41.27;74.82;;
60503;Laerm;51448;51.660;5.824;2023-04-24T12:56:13;53.35;39.53;75.86;;
60503;Laerm;51448;51.660;5.824;2023-04-24T12:58:40;50.32;37.39;72.22;;
60503;Laerm;51448;51.660;5.824;2023-04-24T13:01:08;57.66;39.93;83.59;;
60503;Laerm;51448;51.660;5.824;2023-04-24T13:03:36;56.19;43.18;78.01;;
60503;Laerm;51448;51.660;5.824;2023-04-24T13:06:04;56.79;42.23;77.88;;
60503;Laerm;51448;51.660;5.824;2023-04-24T13:08:31;51.53;39.77;71.16;;
60503;Laerm;51448;51.660;5.824;2023-04-24T13:10:59;52.89;38.89;72.61;;
60503;Laerm;51448;51.660;5.824;2023-04-24T13:13:27;53.46;38.26;77.81;;
60503;Laerm;51448;51.660;5.824;2023-04-24T13:15:54;55.38;38.69;80.37;;
60503;Laerm;51448;51.660;5.824;2023-04-24T13:18:22;60.53;39.21;89.45;;
60503;Laerm;51448;51.660;5.824;2023-04-24T13:20:53;59.58;40.84;83.13;;
60503;Laerm;51448;51.660;5.824;2023-04-24T13:23:28;51.04;41.15;68.67;;
60503;Laerm;51448;51.660;5.824;2023-04-24T13:25:56;50.54;39.14;66.55;;
60503;Laerm;51448;51.660;5.824;2023-04-24T13:28:25;56.16;38.15;76.31;;
60503;Laerm;51448;51.660;5.824;2023-04-24T13:30:52;56.01;39.49;82.84;;
60503;Laerm;51448;51.660;5.824;2023-04-24T13:33:20;50.63;38.83;67.88;;
60503;Laerm;51448;51.660;5.824;2023-04-24T13:35:48;50.93;39.07;67.57;;
60503;Laerm;51448;51.660;5.824;2023-04-24T13:38:15;50.42;38.84;65.17;;
60503;Laerm;51448;51.660;5.824;2023-04-24T13:40:43;55.53;40.71;75.97;;
60503;Laerm;51448;51.660;5.824;2023-04-24T13:43:11;55.64;39.50;79.66;;
60503;Laerm;51448;51.660;5.824;2023-04-24T13:45:38;51.07;38.60;62.83;;
60503;Laerm;51448;51.660;5.824;2023-04-24T13:48:06;53.18;38.43;68.70;;
60503;Laerm;51448;51.660;5.824;2023-04-24T13:50:34;54.53;38.31;73.08;;
60503;Laerm;51448;51.660;5.824;2023-04-24T13:53:02;55.67;38.24;73.75;;
60503;Laerm;51448;51.660;5.824;2023-04-24T13:55:30;62.18;39.71;82.78;;
60503;Laerm;51448;51.660;5.824;2023-04-24T13:58:00;53.13;39.45;69.18;;
60503;Laerm;51448;51.660;5.824;2023-04-24T14:00:30;57.61;39.85;84.38;;
60503;Laerm;51448;51.660;5.824;2023-04-24T14:02:58;51.04;40.24;70.68;;
60503;Laerm;51448;51.660;5.824;2023-04-24T14:05:26;61.58;40.57;86.22;;
60503;Laerm;51448;51.660;5.824;2023-04-24T14:07:54;62.96;45.36;83.75;;